Time;durP1;ratioP1;P1;durP2;ratioP2;P2;SDS_P1;SDS_P2;PMS_P1;PMS_P2;Temp;Humidity;BMP_temperature;BMP_pressure;BME280_temperature;BME280_humidity;BME280_pressure;Samples;Min_cycle;Max_cycle;Signal;HPM_P1;HPM_P2
2023/03/06 00:00:39;;;;;;;2.65;1.52;;;21.00;30.70;;;;;;5048943;28;20090;-54
2023/03/06 00:03:05;;;;;;;2.25;1.50;;;21.00;30.70;;;;;;5048529;28;20033;-50
2023/03/06 00:05:31;;;;;;;2.40;1.45;;;21.00;30.80;;;;;;5048973;28;20039;-51
2023/03/06 00:07:57;;;;;;;2.03;1.27;;;21.00;30.80;;;;;;5048549;28;20029;-53
2023/03/06 00:10:26;;;;;;;2.03;1.52;;;21.00;30.80;;;;;;5047141;28;20033;-53
2023/03/06 00:12:54;;;;;;;1.98;1.30;;;21.00;30.80;;;;;;5048582;28;20076;-49
2023/03/06 00:15:21;;;;;;;2.60;1.45;;;21.00;30.90;;;;;;5049882;28;20036;-51
2023/03/06 00:17:47;;;;;;;3.25;1.55;;;21.00;30.90;;;;;;5049247;28;20371;-49
2023/03/06 00:20:13;;;;;;;3.13;1.13;;;20.90;30.80;;;;;;5047874;28;20068;-49
2023/03/06 00:22:40;;;;;;;2.15;1.42;;;20.90;30.80;;;;;;5047861;28;20041;-49
2023/03/06 00:25:07;;;;;;;1.63;1.10;;;20.90;30.80;;;;;;5049183;28;20033;-48
2023/03/06 00:27:34;;;;;;;3.55;1.13;;;20.90;30.70;;;;;;5048772;28;20043;-49
2023/03/06 00:30:00;;;;;;;1.45;1.10;;;20.90;30.70;;;;;;5047917;28;20033;-46
2023/03/06 00:32:27;;;;;;;2.15;1.27;;;20.90;30.70;;;;;;5048498;28;20036;-49
2023/03/06 00:34:54;;;;;;;3.22;1.40;;;20.90;30.70;;;;;;5047334;28;20441;-48
2023/03/06 00:37:22;;;;;;;3.55;1.35;;;20.90;30.70;;;;;;5047969;28;20079;-49
2023/03/06 00:39:48;;;;;;;4.22;1.10;;;20.90;30.70;;;;;;5046902;28;20029;-52
2023/03/06 00:42:15;;;;;;;2.15;1.08;;;20.90;30.70;;;;;;5047494;28;20056;-51
2023/03/06 00:44:41;;;;;;;1.60;1.02;;;20.80;30.70;;;;;;5048840;28;20070;-47
2023/03/06 00:47:07;;;;;;;1.90;1.10;;;20.90;30.80;;;;;;5045300;28;20354;-47
2023/03/06 00:49:33;;;;;;;2.13;1.33;;;20.80;30.70;;;;;;5048425;28;20028;-48
2023/03/06 00:51:59;;;;;;;2.10;1.10;;;20.80;30.70;;;;;;5049214;28;20035;-49
2023/03/06 00:54:24;;;;;;;2.22;0.90;;;20.80;30.70;;;;;;5048456;28;20037;-49
2023/03/06 00:56:50;;;;;;;1.58;0.80;;;20.80;30.70;;;;;;5048142;28;20025;-51
2023/03/06 00:59:16;;;;;;;1.65;1.10;;;20.80;30.70;;;;;;5046565;28;20037;-49
2023/03/06 01:01:43;;;;;;;1.40;0.90;;;20.80;31.30;;;;;;5047813;28;20111;-53
2023/03/06 01:04:09;;;;;;;2.25;1.13;;;20.80;30.70;;;;;;5051239;28;20127;-47
2023/03/06 01:06:34;;;;;;;1.35;0.75;;;20.80;30.70;;;;;;5052162;28;20408;-49
2023/03/06 01:09:03;;;;;;;1.80;1.10;;;20.80;30.70;;;;;;5054830;28;20045;-50
2023/03/06 01:11:29;;;;;;;1.73;1.00;;;20.70;30.70;;;;;;5051172;28;20047;-48
2023/03/06 01:13:56;;;;;;;1.50;1.00;;;20.70;30.70;;;;;;5052096;28;20053;-49
2023/03/06 01:16:22;;;;;;;1.35;1.08;;;20.80;30.70;;;;;;5052453;28;20025;-49
2023/03/06 01:18:48;;;;;;;1.92;1.10;;;20.70;30.70;;;;;;5051824;28;20558;-51
2023/03/06 01:21:15;;;;;;;2.28;1.33;;;20.70;30.70;;;;;;5050717;28;20049;-47
2023/03/06 01:23:41;;;;;;;2.20;1.30;;;20.70;30.80;;;;;;5052114;28;20041;-50
2023/03/06 01:26:07;;;;;;;2.15;1.10;;;20.70;30.70;;;;;;5051366;28;20044;-48
2023/03/06 01:28:33;;;;;;;1.60;1.00;;;20.70;30.80;;;;;;5050610;28;20040;-52
2023/03/06 01:31:01;;;;;;;1.80;0.90;;;20.70;30.80;;;;;;5052647;28;20348;-48
2023/03/06 01:33:27;;;;;;;1.20;0.80;;;20.70;30.80;;;;;;5049320;28;20045;-47
2023/03/06 01:35:54;;;;;;;1.63;0.80;;;20.70;30.80;;;;;;5076158;28;20124;-48
2023/03/06 01:38:20;;;;;;;1.30;0.68;;;20.70;30.80;;;;;;5051942;28;20178;-49
2023/03/06 01:40:46;;;;;;;2.17;1.00;;;20.70;30.80;;;;;;5051006;28;20040;-52
2023/03/06 01:43:27;;;;;;;2.95;1.27;;;20.70;30.90;;;;;;5050377;28;20029;-49
2023/03/06 01:46:27;;;;;;;1.48;1.08;;;20.70;30.90;;;;;;5051152;28;20090;-49
2023/03/06 01:49:32;;;;;;;2.30;1.00;;;20.60;30.90;;;;;;5050705;28;20068;-49
2023/03/06 01:52:06;;;;;;;1.40;1.00;;;20.60;30.90;;;;;;5049559;28;20044;-49
2023/03/06 01:54:45;;;;;;;1.55;0.98;;;20.60;31.00;;;;;;5050322;28;20409;-47
2023/03/06 01:57:17;;;;;;;1.80;1.00;;;20.60;31.00;;;;;;5051093;28;20112;-49
2023/03/06 01:59:45;;;;;;;1.88;0.90;;;20.60;31.60;;;;;;5074454;28;20029;-50
2023/03/06 02:02:13;;;;;;;1.02;0.70;;;20.60;30.90;;;;;;5050137;28;20167;-48
2023/03/06 02:04:41;;;;;;;1.85;1.08;;;20.60;31.00;;;;;;5048750;28;20330;-51
2023/03/06 02:07:08;;;;;;;2.00;1.00;;;20.60;30.90;;;;;;5050606;28;20424;-48
2023/03/06 02:09:35;;;;;;;1.35;0.95;;;20.60;30.90;;;;;;5050371;28;20036;-52
2023/03/06 02:12:05;;;;;;;1.88;1.08;;;20.60;30.90;;;;;;5051228;28;20083;-49
2023/03/06 02:14:31;;;;;;;1.08;0.80;;;20.60;30.90;;;;;;5049139;28;20060;-50
2023/03/06 02:16:57;;;;;;;2.33;1.30;;;20.50;30.90;;;;;;5050437;28;20044;-49
2023/03/06 02:19:57;;;;;;;1.60;1.20;;;20.50;30.90;;;;;;5050605;28;20025;-52
2023/03/06 02:22:30;;;;;;;1.90;0.95;;;20.50;30.90;;;;;;5049630;28;20037;-51
2023/03/06 02:25:20;;;;;;;1.80;1.20;;;20.50;30.90;;;;;;5050753;28;20040;-50
2023/03/06 02:27:46;;;;;;;2.22;1.10;;;20.50;30.90;;;;;;5050666;28;20369;-47
2023/03/06 02:30:15;;;;;;;2.65;1.05;;;20.50;30.90;;;;;;5051405;28;20032;-50
2023/03/06 02:32:41;;;;;;;2.00;1.20;;;20.50;30.90;;;;;;5049397;28;20025;-51
2023/03/06 02:35:18;;;;;;;2.00;1.30;;;20.50;30.90;;;;;;5048882;28;20029;-51
2023/03/06 02:37:45;;;;;;;1.20;1.10;;;20.50;30.90;;;;;;5057369;28;20032;-50
2023/03/06 02:40:14;;;;;;;1.20;1.08;;;20.50;30.90;;;;;;5075429;28;20045;-52
2023/03/06 02:42:55;;;;;;;1.48;1.25;;;20.50;30.90;;;;;;5050182;28;20056;-51
2023/03/06 02:45:44;;;;;;;1.73;1.00;;;20.50;30.90;;;;;;5050354;28;20137;-48
2023/03/06 02:48:12;;;;;;;2.38;1.20;;;20.50;30.80;;;;;;5053300;28;20043;-50
2023/03/06 02:50:39;;;;;;;2.80;1.40;;;20.40;30.80;;;;;;5038941;28;20033;-49
2023/03/06 02:53:06;;;;;;;1.42;1.30;;;20.40;30.80;;;;;;5039974;28;20033;-47
2023/03/06 02:55:34;;;;;;;1.40;1.20;;;20.40;30.80;;;;;;5043896;28;20036;-48
2023/03/06 02:58:00;;;;;;;2.75;1.35;;;20.40;30.80;;;;;;5048466;28;20032;-51
2023/03/06 03:00:27;;;;;;;2.65;1.63;;;20.40;30.80;;;;;;5048355;28;20491;-46
2023/03/06 03:02:53;;;;;;;1.80;1.30;;;20.40;30.80;;;;;;5050832;28;20052;-46
2023/03/06 03:05:19;;;;;;;1.67;1.30;;;20.40;30.80;;;;;;5049333;28;20024;-49
2023/03/06 03:07:50;;;;;;;2.47;1.50;;;20.40;30.80;;;;;;5049824;28;20039;-47
2023/03/06 03:10:16;;;;;;;2.35;1.73;;;20.40;30.80;;;;;;5049326;28;20028;-48
2023/03/06 03:12:43;;;;;;;2.25;1.50;;;20.40;30.80;;;;;;5046987;28;20045;-46
2023/03/06 03:15:10;;;;;;;2.72;1.48;;;20.40;30.90;;;;;;5049489;28;20036;-51
2023/03/06 03:17:39;;;;;;;2.08;1.38;;;20.40;30.90;;;;;;5048324;28;20050;-49
2023/03/06 03:20:09;;;;;;;2.17;1.40;;;20.40;30.90;;;;;;5050235;28;20033;-48
2023/03/06 03:22:35;;;;;;;2.17;1.50;;;20.40;30.90;;;;;;5048455;28;20045;-51
2023/03/06 03:25:02;;;;;;;3.58;1.70;;;20.30;30.80;;;;;;5047922;28;20025;-48
2023/03/06 03:27:29;;;;;;;1.75;1.50;;;20.40;30.90;;;;;;5047123;28;20025;-48
2023/03/06 03:29:59;;;;;;;2.65;1.73;;;20.40;30.90;;;;;;5048702;28;20440;-46
2023/03/06 03:32:26;;;;;;;2.08;1.52;;;20.40;30.90;;;;;;5049421;28;20436;-49
2023/03/06 03:34:54;;;;;;;2.30;1.98;;;20.30;31.50;;;;;;5073225;28;20040;-48
2023/03/06 03:37:20;;;;;;;2.83;1.80;;;20.30;30.90;;;;;;5049292;28;20037;-47
2023/03/06 03:39:45;;;;;;;2.83;1.95;;;20.30;30.90;;;;;;5048981;28;20025;-49
2023/03/06 03:42:11;;;;;;;3.35;1.58;;;20.30;30.90;;;;;;5048806;28;20401;-48
2023/03/06 03:44:37;;;;;;;1.95;1.60;;;20.30;30.90;;;;;;5048116;28;20024;-50
2023/03/06 03:47:04;;;;;;;2.03;1.50;;;20.30;30.90;;;;;;5048755;28;20029;-50
2023/03/06 03:49:30;;;;;;;3.53;1.50;;;20.30;30.90;;;;;;5047493;28;20167;-48
2023/03/06 03:51:57;;;;;;;2.40;1.80;;;20.30;30.90;;;;;;5048969;28;20032;-50
2023/03/06 03:54:24;;;;;;;1.50;1.40;;;20.30;31.10;;;;;;5046960;28;20025;-50
2023/03/06 03:56:52;;;;;;;2.05;1.60;;;20.30;31.10;;;;;;5046327;28;20035;-50
2023/03/06 03:59:23;;;;;;;1.80;1.60;;;20.30;31.10;;;;;;5048410;28;20033;-47
2023/03/06 04:02:03;;;;;;;2.13;1.65;;;20.30;31.10;;;;;;5046985;28;20036;-47
2023/03/06 04:04:32;;;;;;;1.50;1.33;;;20.30;31.10;;;;;;5047332;28;20029;-51
2023/03/06 04:06:59;;;;;;;1.83;1.33;;;20.20;31.10;;;;;;5048362;28;20455;-52
2023/03/06 04:09:25;;;;;;;1.88;1.50;;;20.30;31.30;;;;;;5048199;28;20040;-50
2023/03/06 04:11:51;;;;;;;2.03;1.77;;;20.20;31.10;;;;;;5048833;28;20025;-51
2023/03/06 04:14:17;;;;;;;2.03;1.40;;;20.20;31.10;;;;;;5047751;28;20045;-46
2023/03/06 04:16:42;;;;;;;2.05;1.40;;;20.20;31.10;;;;;;5048932;28;20025;-51
2023/03/06 04:19:10;;;;;;;1.70;1.40;;;20.20;31.10;;;;;;5049030;28;20318;-50
2023/03/06 04:21:37;;;;;;;2.53;1.50;;;20.20;31.10;;;;;;5045507;28;20032;-53
2023/03/06 04:24:04;;;;;;;2.00;1.52;;;20.20;31.10;;;;;;5047304;28;20033;-50
2023/03/06 04:26:29;;;;;;;2.03;1.52;;;20.20;31.10;;;;;;5048118;28;20104;-49
2023/03/06 04:28:55;;;;;;;1.45;1.30;;;20.20;31.10;;;;;;5047135;28;20123;-50
2023/03/06 04:31:21;;;;;;;2.53;1.50;;;20.20;31.10;;;;;;5048154;28;20392;-51
2023/03/06 04:33:47;;;;;;;3.13;1.50;;;20.20;31.10;;;;;;5047211;28;20052;-53
2023/03/06 04:36:25;;;;;;;2.50;1.42;;;20.20;31.10;;;;;;5047856;28;20022;-49
2023/03/06 04:38:54;;;;;;;2.00;1.48;;;20.20;31.10;;;;;;5047906;28;20025;-51
2023/03/06 04:41:19;;;;;;;1.80;1.40;;;20.20;31.10;;;;;;5046792;28;20044;-53
2023/03/06 04:43:45;;;;;;;1.67;1.38;;;20.20;31.20;;;;;;5047011;28;20043;-49
2023/03/06 04:46:11;;;;;;;1.92;1.17;;;20.10;31.10;;;;;;5048156;28;20055;-47
2023/03/06 04:48:37;;;;;;;1.90;1.52;;;20.20;31.20;;;;;;5047498;28;20029;-49
2023/03/06 04:51:03;;;;;;;1.60;1.20;;;20.20;31.20;;;;;;5048802;28;20021;-48
2023/03/06 04:53:29;;;;;;;1.55;1.42;;;20.20;31.20;;;;;;5049643;28;20368;-51
2023/03/06 04:55:55;;;;;;;1.75;1.20;;;20.10;31.10;;;;;;5047084;28;20025;-52
2023/03/06 04:58:20;;;;;;;1.30;1.20;;;20.10;31.20;;;;;;5048749;28;20028;-52
2023/03/06 05:00:46;;;;;;;2.03;1.50;;;20.10;31.20;;;;;;5046975;28;20110;-48
2023/03/06 05:03:13;;;;;;;1.60;1.17;;;20.10;31.20;;;;;;5046126;28;20025;-47
2023/03/06 05:05:39;;;;;;;1.70;1.30;;;20.10;31.20;;;;;;5047176;28;20356;-50
2023/03/06 05:08:06;;;;;;;3.42;1.67;;;20.10;31.20;;;;;;5046975;28;20403;-47
2023/03/06 05:10:32;;;;;;;1.98;1.30;;;20.10;31.10;;;;;;5048419;28;20037;-50
2023/03/06 05:12:58;;;;;;;2.58;1.65;;;20.10;31.20;;;;;;5047731;28;20079;-46
2023/03/06 05:15:24;;;;;;;2.30;1.30;;;20.10;31.20;;;;;;5049390;28;20037;-47
2023/03/06 05:17:50;;;;;;;1.63;1.10;;;20.10;31.20;;;;;;5045753;28;20029;-48
2023/03/06 05:20:16;;;;;;;2.08;1.33;;;20.10;31.20;;;;;;5049301;28;20037;-48
2023/03/06 05:22:42;;;;;;;1.95;1.40;;;20.10;31.20;;;;;;5045146;28;20057;-50
2023/03/06 05:25:09;;;;;;;1.88;1.38;;;20.00;31.10;;;;;;5048473;28;20090;-49
2023/03/06 05:27:36;;;;;;;1.88;1.25;;;20.10;31.20;;;;;;5047812;28;20040;-50
2023/03/06 05:30:02;;;;;;;1.50;1.20;;;20.10;31.20;;;;;;5048285;28;20025;-48
2023/03/06 05:32:28;;;;;;;2.20;1.55;;;20.00;31.20;;;;;;5046311;28;20034;-50
2023/03/06 05:34:54;;;;;;;2.78;1.48;;;20.10;31.20;;;;;;5048017;28;20067;-49
2023/03/06 05:37:21;;;;;;;2.95;1.55;;;20.00;31.20;;;;;;5048544;28;20119;-49
2023/03/06 05:39:48;;;;;;;2.72;1.48;;;20.00;31.20;;;;;;5048154;28;20033;-48
2023/03/06 05:42:14;;;;;;;1.15;1.02;;;20.10;31.20;;;;;;5047004;28;20480;-48
2023/03/06 05:44:40;;;;;;;1.63;1.13;;;20.00;31.20;;;;;;5047576;28;20043;-47
2023/03/06 05:47:07;;;;;;;2.65;1.55;;;20.00;31.20;;;;;;5047436;28;20033;-50
2023/03/06 05:49:34;;;;;;;1.88;1.50;;;20.10;31.30;;;;;;5050449;28;20037;-49
2023/03/06 05:52:05;;;;;;;2.50;1.60;;;20.00;31.30;;;;;;5045751;28;20441;-53
2023/03/06 05:54:32;;;;;;;1.92;1.50;;;20.00;31.30;;;;;;5040913;28;20026;-46
2023/03/06 05:56:58;;;;;;;1.90;1.33;;;20.00;31.30;;;;;;5045114;28;20050;-48
2023/03/06 05:59:27;;;;;;;2.17;1.35;;;20.00;31.30;;;;;;5051629;28;20053;-49
2023/03/06 06:01:54;;;;;;;1.58;1.30;;;20.00;31.30;;;;;;5050390;28;20045;-49
2023/03/06 06:04:21;;;;;;;2.08;1.63;;;20.00;31.30;;;;;;5052311;28;20035;-49
2023/03/06 06:06:51;;;;;;;2.58;1.38;;;20.00;31.30;;;;;;5050965;28;20032;-48
2023/03/06 06:09:17;;;;;;;2.75;1.77;;;20.00;31.40;;;;;;5049886;28;20225;-48
2023/03/06 06:11:43;;;;;;;1.40;1.30;;;20.00;31.40;;;;;;5051018;28;20536;-51
2023/03/06 06:14:09;;;;;;;1.90;1.52;;;20.00;31.40;;;;;;5050920;28;20053;-49
2023/03/06 06:16:35;;;;;;;2.05;1.55;;;20.00;31.50;;;;;;5051894;28;20471;-52
2023/03/06 06:19:00;;;;;;;2.10;1.60;;;19.90;31.50;;;;;;5052471;28;20086;-49
2023/03/06 06:21:26;;;;;;;1.92;1.65;;;20.00;31.50;;;;;;5049613;28;20051;-50
2023/03/06 06:23:52;;;;;;;1.90;1.50;;;20.00;31.50;;;;;;5049686;28;20045;-49
2023/03/06 06:26:18;;;;;;;2.40;1.40;;;19.90;31.50;;;;;;5051278;28;20029;-48
2023/03/06 06:28:44;;;;;;;1.73;1.20;;;20.00;31.60;;;;;;5050460;28;20166;-53
2023/03/06 06:31:11;;;;;;;1.77;1.33;;;19.90;31.60;;;;;;5033254;28;20037;-50
2023/03/06 06:33:37;;;;;;;1.50;1.23;;;19.90;31.60;;;;;;5048858;28;20717;-49
2023/03/06 06:36:03;;;;;;;2.92;1.27;;;19.90;31.60;;;;;;5051463;28;20448;-47
2023/03/06 06:38:29;;;;;;;1.48;0.98;;;19.90;32.20;;;;;;5052331;28;20040;-53
2023/03/06 06:40:55;;;;;;;1.70;1.10;;;19.90;31.60;;;;;;5050811;28;20048;-51
2023/03/06 06:43:21;;;;;;;1.80;1.10;;;19.90;31.60;;;;;;5050013;28;20032;-51
2023/03/06 06:45:47;;;;;;;1.92;1.02;;;19.90;31.60;;;;;;5049747;28;20414;-49
2023/03/06 06:48:13;;;;;;;1.60;0.85;;;19.90;31.60;;;;;;5048854;28;20025;-46
2023/03/06 06:50:39;;;;;;;1.30;0.80;;;19.90;31.60;;;;;;5045936;28;20519;-50
2023/03/06 06:53:04;;;;;;;1.15;0.88;;;19.90;31.60;;;;;;5049865;28;20033;-50
2023/03/06 06:55:30;;;;;;;1.35;1.02;;;19.90;31.60;;;;;;5050068;28;20433;-46
2023/03/06 06:57:56;;;;;;;1.50;0.88;;;19.90;31.70;;;;;;5050747;28;20033;-47
2023/03/06 07:00:23;;;;;;;2.03;1.33;;;19.90;31.70;;;;;;5048692;28;20033;-51
2023/03/06 07:02:50;;;;;;;1.27;0.82;;;19.90;31.70;;;;;;5047175;28;20041;-49
2023/03/06 07:05:16;;;;;;;1.83;0.70;;;19.90;31.70;;;;;;5050043;28;20036;-47
2023/03/06 07:07:43;;;;;;;1.30;0.77;;;19.90;31.70;;;;;;5047510;28;20040;-49
2023/03/06 07:10:14;;;;;;;1.25;0.60;;;19.90;31.70;;;;;;5048719;28;20075;-47
2023/03/06 07:12:41;;;;;;;1.77;0.80;;;19.90;31.80;;;;;;5049468;28;20040;-48
2023/03/06 07:15:07;;;;;;;2.08;0.90;;;19.90;31.80;;;;;;5049322;28;20033;-51
2023/03/06 07:17:33;;;;;;;1.75;0.85;;;19.90;31.80;;;;;;5048544;28;21622;-46
2023/03/06 07:19:59;;;;;;;1.65;0.70;;;19.90;31.70;;;;;;5048330;28;20029;-46
2023/03/06 07:22:25;;;;;;;2.67;0.90;;;19.90;31.70;;;;;;5053079;28;20033;-46
2023/03/06 07:24:51;;;;;;;1.88;0.70;;;19.90;31.80;;;;;;5054098;28;20044;-51
2023/03/06 07:27:18;;;;;;;1.83;0.75;;;19.80;31.70;;;;;;5052237;28;20075;-47
2023/03/06 07:29:44;;;;;;;2.45;0.88;;;19.90;31.80;;;;;;5047064;28;20361;-50
2023/03/06 07:32:10;;;;;;;2.35;0.60;;;19.80;31.80;;;;;;5048646;28;20047;-50
2023/03/06 07:34:36;;;;;;;1.30;0.60;;;19.90;31.90;;;;;;5047619;28;20278;-47
2023/03/06 07:37:02;;;;;;;1.63;0.80;;;19.80;32.00;;;;;;5051442;28;20414;-51
2023/03/06 07:39:29;;;;;;;1.92;1.10;;;19.90;32.20;;;;;;5040786;28;20383;-52
2023/03/06 07:41:55;;;;;;;1.95;0.60;;;19.90;32.30;;;;;;5049889;28;20436;-49
2023/03/06 07:44:21;;;;;;;3.67;0.85;;;19.90;32.40;;;;;;5047826;28;20037;-52
2023/03/06 07:46:47;;;;;;;2.90;0.98;;;19.90;32.50;;;;;;5047924;28;20146;-49
2023/03/06 07:49:13;;;;;;;1.50;0.60;;;19.90;32.50;;;;;;5050136;28;20032;-47
2023/03/06 07:51:39;;;;;;;3.17;0.98;;;19.90;32.50;;;;;;5049486;28;20021;-51
2023/03/06 07:54:05;;;;;;;5.97;1.00;;;20.00;32.50;;;;;;5049126;28;20090;-51
2023/03/06 07:56:33;;;;;;;1.15;0.57;;;20.00;32.50;;;;;;5048808;28;20356;-49
2023/03/06 07:59:00;;;;;;;2.33;1.00;;;20.10;32.40;;;;;;5048911;28;20040;-48
2023/03/06 08:01:26;;;;;;;3.58;0.90;;;20.10;32.30;;;;;;5050266;28;20080;-48
2023/03/06 08:03:52;;;;;;;2.83;0.90;;;20.20;32.30;;;;;;5048258;28;20098;-49
2023/03/06 08:06:26;;;;;;;2.33;0.70;;;20.20;32.30;;;;;;5048398;28;20025;-46
2023/03/06 08:08:53;;;;;;;3.75;0.82;;;20.30;32.30;;;;;;5049033;28;20032;-50
2023/03/06 08:11:23;;;;;;;2.08;0.70;;;20.30;32.20;;;;;;5048741;28;20056;-49
2023/03/06 08:13:51;;;;;;;2.67;0.70;;;20.40;32.10;;;;;;5047965;28;20103;-49
2023/03/06 08:16:19;;;;;;;3.35;0.88;;;20.40;32.00;;;;;;5048605;28;20061;-47
2023/03/06 08:18:45;;;;;;;2.92;0.85;;;20.40;32.00;;;;;;5049915;28;20052;-51
2023/03/06 08:21:13;;;;;;;2.55;0.80;;;20.50;31.90;;;;;;5048645;28;20041;-47
2023/03/06 08:23:40;;;;;;;1.67;0.60;;;20.50;31.90;;;;;;5047004;28;20453;-49
2023/03/06 08:26:12;;;;;;;2.35;0.63;;;20.60;31.90;;;;;;5050771;28;20028;-49
2023/03/06 08:28:38;;;;;;;2.40;0.70;;;20.60;31.90;;;;;;5047591;28;20032;-49
2023/03/06 08:31:18;;;;;;;1.75;0.55;;;20.70;31.80;;;;;;5048288;28;20033;-49
2023/03/06 08:33:44;;;;;;;2.80;0.70;;;20.70;31.70;;;;;;5047474;28;20021;-50
2023/03/06 08:36:10;;;;;;;2.80;0.57;;;20.80;31.60;;;;;;5049139;28;20092;-52
2023/03/06 08:38:36;;;;;;;1.38;0.65;;;20.80;31.50;;;;;;5045082;28;20082;-49
2023/03/06 08:41:02;;;;;;;2.55;0.70;;;20.80;31.40;;;;;;5052071;28;20028;-48
2023/03/06 08:43:28;;;;;;;1.00;0.43;;;20.90;31.40;;;;;;5052721;28;20082;-49
2023/03/06 08:45:55;;;;;;;1.92;0.40;;;21.00;31.30;;;;;;5056677;28;20060;-50
2023/03/06 08:48:21;;;;;;;2.00;0.65;;;20.90;31.20;;;;;;5051599;28;20028;-48
2023/03/06 08:50:48;;;;;;;1.13;0.50;;;21.00;31.10;;;;;;5055928;28;20033;-48
2023/03/06 08:53:14;;;;;;;0.85;0.50;;;21.00;31.10;;;;;;5049257;28;20090;-46
2023/03/06 08:55:39;;;;;;;1.15;0.50;;;21.10;31.10;;;;;;5052915;28;20024;-49
2023/03/06 08:58:06;;;;;;;1.33;0.40;;;21.10;31.00;;;;;;5051497;28;20032;-51
2023/03/06 09:00:32;;;;;;;1.50;0.40;;;21.10;31.00;;;;;;5049036;28;20098;-49
2023/03/06 09:02:58;;;;;;;1.85;0.47;;;21.10;30.90;;;;;;5049353;28;20049;-50
2023/03/06 09:05:24;;;;;;;1.42;0.40;;;21.20;30.90;;;;;;5048043;28;20123;-51
2023/03/06 09:07:50;;;;;;;0.85;0.35;;;21.10;30.70;;;;;;5048047;28;20107;-49
2023/03/06 09:10:19;;;;;;;0.30;0.20;;;21.10;30.70;;;;;;5049085;28;20047;-47
2023/03/06 09:12:45;;;;;;;0.95;0.38;;;21.20;30.70;;;;;;5047259;28;20075;-48
2023/03/06 09:15:12;;;;;;;0.88;0.38;;;21.20;30.60;;;;;;5049089;28;20512;-51
2023/03/06 09:17:38;;;;;;;0.40;0.20;;;21.20;30.50;;;;;;5047974;28;20048;-51
2023/03/06 09:20:07;;;;;;;1.05;0.20;;;21.20;30.50;;;;;;5044862;28;20456;-52
2023/03/06 09:22:33;;;;;;;1.17;0.20;;;21.20;30.40;;;;;;5047585;28;20072;-51
2023/03/06 09:24:59;;;;;;;0.28;0.20;;;21.20;30.40;;;;;;5049401;28;20456;-50
2023/03/06 09:27:27;;;;;;;1.27;0.40;;;21.20;30.40;;;;;;5049848;28;20068;-50
2023/03/06 09:29:54;;;;;;;1.85;0.40;;;21.20;30.40;;;;;;5054563;28;20090;-53
2023/03/06 09:32:20;;;;;;;0.77;0.30;;;21.20;30.30;;;;;;5050139;28;20448;-50
2023/03/06 09:34:46;;;;;;;0.70;0.20;;;21.20;30.30;;;;;;5051076;28;20032;-48
2023/03/06 09:37:12;;;;;;;0.80;0.20;;;21.20;30.30;;;;;;5052198;28;20043;-48
2023/03/06 09:39:38;;;;;;;0.80;0.20;;;21.20;30.30;;;;;;5050827;28;20090;-49
2023/03/06 09:42:11;;;;;;;0.40;0.20;;;21.20;30.20;;;;;;5051791;28;20044;-48
2023/03/06 09:44:39;;;;;;;0.90;0.30;;;21.20;30.20;;;;;;5052236;28;20341;-48
2023/03/06 09:47:33;;;;;;;0.50;0.22;;;21.20;30.20;;;;;;5051350;28;20094;-47
2023/03/06 09:50:03;;;;;;;0.43;0.30;;;21.20;30.00;;;;;;5052192;28;20095;-48
2023/03/06 09:52:36;;;;;;;0.88;0.20;;;21.20;30.00;;;;;;5051172;28;20479;-48
2023/03/06 09:55:12;;;;;;;1.15;0.30;;;21.30;30.00;;;;;;5051013;28;20122;-46
2023/03/06 09:57:55;;;;;;;0.65;0.20;;;21.30;30.00;;;;;;5052303;28;20032;-48
2023/03/06 10:00:41;;;;;;;0.90;0.20;;;21.30;30.00;;;;;;5051964;28;20037;-49
2023/03/06 10:03:12;;;;;;;0.20;0.10;;;21.30;29.90;;;;;;5051854;28;20033;-46
2023/03/06 10:05:41;;;;;;;2.00;0.30;;;21.30;29.80;;;;;;5050394;28;20053;-48
2023/03/06 10:08:39;;;;;;;0.10;0.10;;;21.30;29.80;;;;;;5050236;28;20130;-52
2023/03/06 10:11:09;;;;;;;0.77;0.30;;;21.30;29.70;;;;;;5050807;28;20075;-48
2023/03/06 10:13:42;;;;;;;0.60;0.20;;;21.30;29.60;;;;;;5050568;28;20761;-52
2023/03/06 10:16:30;;;;;;;0.30;0.20;;;21.30;29.60;;;;;;5052728;28;20088;-49
2023/03/06 10:19:03;;;;;;;0.30;0.17;;;21.30;29.60;;;;;;5051970;28;20520;-47
2023/03/06 10:21:48;;;;;;;0.30;0.13;;;21.30;29.50;;;;;;5050655;28;20408;-52
2023/03/06 10:24:32;;;;;;;0.63;0.30;;;21.40;29.50;;;;;;5051508;28;20033;-50
2023/03/06 10:27:26;;;;;;;0.10;0.10;;;21.30;29.40;;;;;;5050874;28;20033;-51
2023/03/06 10:30:11;;;;;;;0.30;0.10;;;21.30;29.30;;;;;;5050672;28;20052;-46
2023/03/06 10:33:06;;;;;;;0.50;0.20;;;21.30;29.30;;;;;;5053588;28;20040;-49
2023/03/06 10:35:48;;;;;;;0.40;0.20;;;21.30;29.30;;;;;;5056675;28;20045;-50
2023/03/06 10:38:24;;;;;;;0.32;0.10;;;21.30;29.20;;;;;;5051974;28;20025;-51
2023/03/06 10:40:53;;;;;;;0.20;0.10;;;21.30;29.20;;;;;;5051095;28;20057;-49
2023/03/06 10:43:21;;;;;;;0.47;0.17;;;21.30;29.10;;;;;;5051482;28;20090;-51
2023/03/06 10:45:52;;;;;;;0.17;0.10;;;21.30;29.10;;;;;;5050337;28;20017;-50
2023/03/06 10:48:24;;;;;;;0.57;0.20;;;21.30;29.00;;;;;;5049765;28;20025;-48
2023/03/06 10:50:52;;;;;;;0.63;0.15;;;21.30;28.90;;;;;;5048979;28;20033;-50
2023/03/06 10:53:27;;;;;;;0.28;0.10;;;21.30;28.90;;;;;;5052600;28;20025;-50
2023/03/06 10:55:59;;;;;;;0.20;0.20;;;21.30;29.30;;;;;;5053132;28;20039;-48
2023/03/06 10:58:31;;;;;;;0.20;0.13;;;21.30;28.70;;;;;;5054742;28;20025;-47
2023/03/06 11:01:20;;;;;;;0.22;0.20;;;21.30;28.60;;;;;;5050856;28;20146;-52
2023/03/06 11:03:46;;;;;;;0.30;0.20;;;21.30;28.50;;;;;;5053921;28;20166;-57
2023/03/06 11:06:35;;;;;;;0.45;0.20;;;21.30;28.70;;;;;;5076250;28;20032;-53
2023/03/06 11:09:21;;;;;;;0.65;0.20;;;21.30;29.10;;;;;;5058149;28;20028;-58
2023/03/06 11:11:50;;;;;;;0.80;0.32;;;21.30;29.40;;;;;;5052782;28;20349;-56
2023/03/06 11:14:19;;;;;;;0.45;0.30;;;21.40;29.60;;;;;;5051025;28;20064;-55
2023/03/06 11:16:53;;;;;;;0.57;0.30;;;21.40;29.60;;;;;;5052747;28;20048;-55
2023/03/06 11:19:26;;;;;;;1.00;0.50;;;21.50;29.60;;;;;;5053133;28;20040;-56
2023/03/06 11:22:21;;;;;;;1.67;0.40;;;21.60;29.60;;;;;;5049531;28;20064;-56
2023/03/06 11:24:50;;;;;;;0.20;0.20;;;21.70;29.60;;;;;;5044618;28;20368;-50
2023/03/06 11:27:33;;;;;;;1.17;0.47;;;21.80;29.70;;;;;;5052520;28;20377;-54
2023/03/06 11:30:06;;;;;;;0.98;0.45;;;22.00;29.70;;;;;;5062625;28;20029;-55
2023/03/06 11:32:51;;;;;;;1.23;0.20;;;22.10;29.70;;;;;;5051733;28;20039;-54
2023/03/06 11:35:21;;;;;;;;;;;22.20;29.60;;;;;;5049272;28;20047;-55
2023/03/06 11:37:57;;;;;;;2.03;0.35;;;22.20;29.50;;;;;;5049443;28;19939;-54
2023/03/06 11:40:32;;;;;;;1.08;0.20;;;22.30;29.30;;;;;;5049453;28;20029;-56
2023/03/06 11:43:19;;;;;;;1.48;0.30;;;22.40;29.20;;;;;;5049494;28;20060;-55
2023/03/06 11:45:54;;;;;;;0.63;0.28;;;22.50;29.20;;;;;;5049664;28;20242;-53
2023/03/06 11:48:41;;;;;;;10.02;0.43;;;22.50;29.10;;;;;;5048812;28;20029;-63
2023/03/06 11:51:28;;;;;;;1.40;0.40;;;22.50;29.20;;;;;;5051472;28;20098;-52
2023/03/06 11:53:54;;;;;;;2.45;0.30;;;22.60;29.30;;;;;;5050187;28;20028;-58
2023/03/06 11:56:38;;;;;;;1.45;0.20;;;22.60;29.30;;;;;;5049768;28;20468;-54
2023/03/06 11:59:17;;;;;;;;;;;22.70;29.50;;;;;;5050305;28;20032;-55
2023/03/06 12:02:04;;;;;;;0.38;0.20;;;22.70;29.50;;;;;;5050709;28;19971;-52
2023/03/06 12:04:52;;;;;;;0.77;0.20;;;22.70;29.50;;;;;;5048199;28;20037;-58
2023/03/06 12:07:24;;;;;;;3.92;0.40;;;22.80;29.50;;;;;;5044278;28;20524;-55
2023/03/06 12:10:19;;;;;;;3.00;0.40;;;22.80;29.40;;;;;;5044572;28;20276;-55
2023/03/06 12:13:09;;;;;;;0.98;0.20;;;22.90;29.30;;;;;;5025800;28;20049;-53
2023/03/06 12:15:38;;;;;;;1.95;0.35;;;22.90;29.20;;;;;;5032917;28;20052;-54
2023/03/06 12:18:27;;;;;;;1.88;0.38;;;22.90;29.10;;;;;;5023840;28;21277;-52
2023/03/06 12:21:20;;;;;;;2.90;0.40;;;23.00;29.00;;;;;;5031214;28;20032;-55
2023/03/06 12:24:27;;;;;;;0.70;0.20;;;23.00;28.90;;;;;;5052223;28;20032;-55
2023/03/06 12:26:59;;;;;;;1.15;0.43;;;23.10;28.80;;;;;;5038796;28;20119;-53
2023/03/06 12:29:28;;;;;;;1.55;0.77;;;23.10;28.70;;;;;;5047052;28;20040;-51
2023/03/06 12:32:19;;;;;;;3.53;0.30;;;23.10;28.60;;;;;;5044038;28;20029;-52
2023/03/06 12:35:04;;;;;;;2.25;0.40;;;23.10;28.60;;;;;;5036037;28;20471;-55
2023/03/06 12:37:54;;;;;;;3.08;0.47;;;23.10;28.60;;;;;;5044491;28;20032;-54
2023/03/06 12:40:45;;;;;;;0.75;0.30;;;23.10;28.50;;;;;;5036041;28;20032;-55
2023/03/06 12:43:39;;;;;;;1.67;0.40;;;23.10;28.50;;;;;;5065194;28;20052;-52
2023/03/06 12:46:27;;;;;;;0.63;0.20;;;23.10;28.50;;;;;;5045358;28;20115;-54
2023/03/06 12:49:04;;;;;;;0.28;0.20;;;23.10;28.60;;;;;;5043891;28;20075;-54
2023/03/06 12:51:32;;;;;;;1.48;0.20;;;23.10;28.60;;;;;;5045032;28;20033;-57
2023/03/06 12:54:00;;;;;;;0.70;0.15;;;23.10;28.50;;;;;;5041772;28;20052;-56
2023/03/06 12:56:29;;;;;;;0.20;0.20;;;23.20;28.40;;;;;;5031809;28;20044;-55
2023/03/06 12:59:01;;;;;;;0.47;0.15;;;23.20;28.30;;;;;;5036739;28;20097;-52
2023/03/06 13:01:59;;;;;;;0.52;0.20;;;23.20;28.30;;;;;;5036988;28;20060;-53
2023/03/06 13:04:44;;;;;;;1.77;0.20;;;23.20;28.20;;;;;;5042068;28;20042;-51